Raw METAR:
KAUS 210753Z 00000KT 10SM BKN075 BKN200 07/04 A2997 RMK AO2 SLP149 T00670039

Visibility:
10 mi.

Clouds:
Broken at 7500 ft.
Broken at 20000 ft.

Remarks:
RMK AO2 SLP149 T00670039

Broken at 7500 ft
Broken at 20000 ft
10 miles